Time;durP1;ratioP1;P1;durP2;ratioP2;P2;SDS_P1;SDS_P2;PMS_P1;PMS_P2;Temp;Humidity;BMP_temperature;BMP_pressure;BME280_temperature;BME280_humidity;BME280_pressure;Samples;Min_cycle;Max_cycle;Signal;HPM_P1;HPM_P2
2022/03/10 00:02:25;;;;;;;1999.90;999.90;;;4.40;99.90;;;;;;5027272;28;20548;-71
2022/03/10 00:04:52;;;;;;;1999.90;999.90;;;4.40;99.90;;;;;;5027431;28;20505;-71
2022/03/10 00:07:18;;;;;;;1999.90;999.90;;;4.40;99.70;;;;;;5027802;28;20883;-70
2022/03/10 00:09:47;;;;;;;1999.90;999.90;;;4.50;99.60;;;;;;5027730;28;20501;-71
2022/03/10 00:12:14;;;;;;;1999.90;999.90;;;4.50;99.50;;;;;;5027220;28;20485;-69
2022/03/10 00:14:40;;;;;;;1999.90;999.90;;;4.60;99.30;;;;;;5027739;28;20447;-69
2022/03/10 00:17:07;;;;;;;1999.90;999.90;;;4.60;99.20;;;;;;5028920;28;20509;-70
2022/03/10 00:19:34;;;;;;;1999.90;999.90;;;4.60;99.10;;;;;;5027623;28;20446;-70
2022/03/10 00:22:00;;;;;;;1999.90;999.90;;;4.60;99.00;;;;;;5040703;28;20481;-71
2022/03/10 00:24:27;;;;;;;1999.90;999.90;;;4.60;99.00;;;;;;5043783;28;20498;-70
2022/03/10 00:26:55;;;;;;;1999.90;999.90;;;4.70;99.00;;;;;;5041794;28;20447;-70
2022/03/10 00:29:22;;;;;;;1999.90;999.90;;;4.70;99.00;;;;;;5028025;28;20444;-70
2022/03/10 00:31:48;;;;;;;1999.90;999.90;;;4.60;99.10;;;;;;5027698;28;20459;-69
2022/03/10 00:34:15;;;;;;;1999.90;999.90;;;4.70;99.00;;;;;;5028260;28;20502;-70
2022/03/10 00:36:42;;;;;;;1999.90;999.90;;;4.70;99.00;;;;;;5027798;28;20447;-69
2022/03/10 00:39:09;;;;;;;1999.90;999.90;;;4.60;99.30;;;;;;5027527;28;20455;-71
2022/03/10 00:41:36;;;;;;;1999.90;999.90;;;4.50;99.30;;;;;;5026984;28;20455;-70
2022/03/10 00:44:05;;;;;;;1999.90;999.90;;;4.60;99.20;;;;;;5027639;28;20509;-70
2022/03/10 00:46:31;;;;;;;1999.90;999.90;;;4.60;98.90;;;;;;5027858;28;20565;-70
2022/03/10 00:48:58;;;;;;;1999.90;999.90;;;4.60;98.90;;;;;;5027930;28;21226;-70
2022/03/10 00:51:25;;;;;;;1999.90;999.90;;;4.70;98.70;;;;;;5027029;28;20443;-70
2022/03/10 00:53:51;;;;;;;1999.90;999.90;;;4.80;98.50;;;;;;5028208;28;20529;-70
2022/03/10 00:56:18;;;;;;;1999.90;999.90;;;4.80;98.50;;;;;;5028218;28;20591;-70
2022/03/10 00:58:45;;;;;;;1999.90;999.90;;;4.90;98.10;;;;;;5029015;28;20473;-70
2022/03/10 01:01:13;;;;;;;1999.90;999.90;;;5.00;97.90;;;;;;5027803;28;21309;-69
2022/03/10 01:03:39;;;;;;;1999.90;999.90;;;5.00;97.80;;;;;;5028275;28;20494;-70
2022/03/10 01:06:06;;;;;;;1999.90;999.90;;;5.10;97.60;;;;;;5031603;28;20524;-70
2022/03/10 01:08:33;;;;;;;1999.90;999.90;;;5.10;97.50;;;;;;5031682;28;20501;-71
2022/03/10 01:10:59;;;;;;;1999.90;999.90;;;5.10;97.20;;;;;;5030660;28;20494;-70
2022/03/10 01:13:26;;;;;;;1999.90;999.90;;;5.20;97.20;;;;;;5032179;28;20463;-70
2022/03/10 01:15:53;;;;;;;1999.90;999.90;;;5.30;96.80;;;;;;5031404;28;20455;-70
2022/03/10 01:18:21;;;;;;;1999.90;999.90;;;5.40;96.40;;;;;;5031629;28;20478;-70
2022/03/10 01:20:47;;;;;;;1999.90;999.90;;;5.50;96.40;;;;;;5031204;28;20490;-70
2022/03/10 01:23:14;;;;;;;1999.90;999.90;;;5.50;96.30;;;;;;5031514;28;20482;-71
2022/03/10 01:25:41;;;;;;;1999.90;999.90;;;5.50;96.30;;;;;;5031280;28;20510;-70
2022/03/10 01:28:07;;;;;;;1999.90;999.90;;;5.50;96.10;;;;;;5031445;28;20447;-71
2022/03/10 01:30:35;;;;;;;1999.90;999.90;;;5.40;96.40;;;;;;5032473;28;20459;-72
2022/03/10 01:33:02;;;;;;;1999.90;999.90;;;5.30;96.50;;;;;;5032200;28;20463;-71
2022/03/10 01:35:30;;;;;;;1999.90;999.90;;;5.20;96.60;;;;;;5031434;28;20493;-70
2022/03/10 01:37:57;;;;;;;1999.90;999.90;;;5.10;97.00;;;;;;5030799;28;20447;-71
2022/03/10 01:40:24;;;;;;;1999.90;999.90;;;5.10;97.00;;;;;;5030602;28;20493;-71
2022/03/10 01:42:50;;;;;;;1999.90;999.90;;;5.10;97.20;;;;;;5030297;28;20509;-70
2022/03/10 01:45:18;;;;;;;1999.90;999.90;;;5.10;97.00;;;;;;5031462;28;20498;-70
2022/03/10 01:47:44;;;;;;;1999.90;999.90;;;5.00;97.20;;;;;;5031897;28;20478;-71
2022/03/10 01:50:13;;;;;;;1999.90;999.90;;;5.00;97.50;;;;;;5031068;28;20963;-69
2022/03/10 01:52:42;;;;;;;1999.90;999.90;;;4.90;97.50;;;;;;5030970;28;20552;-70
2022/03/10 01:55:09;;;;;;;1999.90;999.90;;;4.90;97.60;;;;;;5030674;28;20451;-71
2022/03/10 01:57:37;;;;;;;1999.90;999.90;;;4.90;97.70;;;;;;5030725;28;20447;-70
2022/03/10 02:00:05;;;;;;;1999.90;999.90;;;4.90;97.60;;;;;;5030592;28;20886;-70
2022/03/10 02:02:32;;;;;;;1999.90;999.90;;;4.80;97.50;;;;;;5030184;28;20483;-70
2022/03/10 02:04:58;;;;;;;1999.90;999.90;;;4.80;97.70;;;;;;5030684;28;20448;-70
2022/03/10 02:10:20;;;;;;;1999.90;999.90;;;4.80;97.90;;;;;;5030272;28;21048;-69
2022/03/10 02:12:48;;;;;;;1999.90;999.90;;;4.90;97.90;;;;;;5029971;28;20463;-70
2022/03/10 02:18:01;;;;;;;1999.90;999.90;;;4.80;98.10;;;;;;5030024;28;20426;-70
2022/03/10 02:20:28;;;;;;;1999.90;999.90;;;4.80;98.10;;;;;;5030288;28;20458;-70
2022/03/10 02:22:56;;;;;;;1999.90;999.90;;;4.90;98.10;;;;;;5030060;28;20537;-70
2022/03/10 02:25:24;;;;;;;1999.90;999.90;;;4.80;98.10;;;;;;5030497;28;20493;-70
2022/03/10 02:27:52;;;;;;;1999.90;999.90;;;4.90;98.20;;;;;;5029347;28;20501;-70
2022/03/10 02:30:20;;;;;;;1999.90;999.90;;;4.90;98.30;;;;;;5029439;28;20447;-71
2022/03/10 02:32:46;;;;;;;1999.90;999.90;;;4.90;98.30;;;;;;5028811;28;20463;-71
2022/03/10 02:35:13;;;;;;;1999.90;999.90;;;4.90;98.40;;;;;;5029908;28;20459;-70
2022/03/10 02:37:40;;;;;;;1999.90;999.90;;;5.00;98.40;;;;;;5029587;28;20521;-69
2022/03/10 02:40:10;;;;;;;1999.90;999.90;;;5.00;98.50;;;;;;5029936;28;20461;-70
2022/03/10 02:42:37;;;;;;;1999.90;999.90;;;5.00;98.50;;;;;;5026541;28;20570;-70
2022/03/10 02:45:05;;;;;;;1999.90;999.90;;;5.10;98.40;;;;;;5028975;28;20517;-70
2022/03/10 02:47:32;;;;;;;1999.90;999.90;;;5.10;98.30;;;;;;5028965;28;20501;-70
2022/03/10 02:49:59;;;;;;;1999.90;999.90;;;5.10;98.50;;;;;;5029047;28;20484;-70
2022/03/10 02:52:26;;;;;;;1999.90;999.90;;;5.10;98.70;;;;;;5029457;28;20467;-70
2022/03/10 02:54:53;;;;;;;1999.90;999.90;;;5.10;98.70;;;;;;5029232;28;20451;-70
2022/03/10 02:57:21;;;;;;;1999.90;999.90;;;5.00;98.90;;;;;;5029245;28;20447;-71
2022/03/10 02:59:47;;;;;;;1999.90;999.90;;;5.00;99.00;;;;;;5028801;28;20443;-70
2022/03/10 03:02:14;;;;;;;1999.90;999.90;;;5.00;99.10;;;;;;5028480;28;20836;-70
2022/03/10 03:04:41;;;;;;;1999.90;999.90;;;4.90;99.30;;;;;;5029221;28;20869;-70
2022/03/10 03:07:08;;;;;;;1999.90;999.90;;;4.90;99.60;;;;;;5029472;28;20447;-69
2022/03/10 03:09:34;;;;;;;1999.90;999.90;;;4.90;99.70;;;;;;5029351;28;20443;-70
2022/03/10 03:12:01;;;;;;;1999.90;999.90;;;4.80;99.70;;;;;;5029364;28;20463;-70
2022/03/10 03:14:29;;;;;;;1999.90;999.90;;;4.80;99.90;;;;;;5028989;28;20456;-70
2022/03/10 03:16:57;;;;;;;1999.90;999.90;;;4.80;99.90;;;;;;5029069;28;20443;-70
2022/03/10 03:19:23;;;;;;;1999.90;999.90;;;4.80;99.90;;;;;;5029126;28;20454;-70
2022/03/10 03:21:51;;;;;;;1999.90;999.90;;;4.80;99.90;;;;;;5028374;28;20810;-70
2022/03/10 03:24:19;;;;;;;1999.90;999.90;;;4.80;99.90;;;;;;5028499;28;20483;-69
2022/03/10 03:26:45;;;;;;;1999.90;999.90;;;4.70;99.90;;;;;;5028195;28;20546;-71
2022/03/10 03:29:12;;;;;;;1999.90;999.90;;;4.70;99.90;;;;;;5027953;28;20935;-70
2022/03/10 03:31:40;;;;;;;1999.90;999.90;;;4.70;99.90;;;;;;5028012;28;20497;-71
2022/03/10 03:34:10;;;;;;;1999.90;999.90;;;4.60;99.90;;;;;;5028588;28;20458;-70
2022/03/10 03:36:37;;;;;;;1999.90;999.90;;;4.60;99.90;;;;;;5028340;28;20542;-70
2022/03/10 03:39:04;;;;;;;1999.90;999.90;;;4.50;99.90;;;;;;5027658;28;20881;-71
2022/03/10 03:41:31;;;;;;;1999.90;999.90;;;4.40;99.90;;;;;;5027773;28;20944;-70
2022/03/10 03:43:57;;;;;;;1999.90;999.90;;;4.30;99.90;;;;;;5027570;28;20589;-70
2022/03/10 03:46:24;;;;;;;1999.90;999.90;;;4.20;99.90;;;;;;5028153;28;20989;-70
2022/03/10 03:48:52;;;;;;;1999.90;999.90;;;4.20;99.90;;;;;;5027233;28;20851;-69
2022/03/10 03:51:19;;;;;;;1999.90;999.90;;;4.20;99.90;;;;;;5028121;28;20461;-65
2022/03/10 03:53:45;;;;;;;1999.90;999.90;;;4.10;99.90;;;;;;5028983;28;20451;-68
2022/03/10 03:56:12;;;;;;;1999.90;999.90;;;4.20;99.90;;;;;;5028176;28;20463;-67
2022/03/10 03:58:39;;;;;;;1999.90;999.90;;;4.20;99.90;;;;;;5028083;28;20477;-67
2022/03/10 04:01:05;;;;;;;1999.90;999.90;;;4.10;99.90;;;;;;5026054;28;20505;-66
2022/03/10 04:03:32;;;;;;;1999.90;999.90;;;4.10;99.90;;;;;;5028791;28;20486;-68
2022/03/10 04:06:00;;;;;;;1999.90;999.90;;;4.00;99.90;;;;;;5028694;28;20869;-67
2022/03/10 04:08:26;;;;;;;1999.90;999.90;;;3.90;99.90;;;;;;5028137;28;20870;-67
2022/03/10 04:10:53;;;;;;;1999.90;999.90;;;3.80;99.90;;;;;;5027958;28;20961;-67
2022/03/10 04:13:21;;;;;;;1999.90;999.90;;;3.70;99.90;;;;;;5028717;28;20463;-67
2022/03/10 04:15:48;;;;;;;1999.90;999.90;;;3.60;99.90;;;;;;5027239;28;21230;-67
2022/03/10 04:18:15;;;;;;;1999.90;999.90;;;3.50;99.90;;;;;;5027815;28;20461;-66
2022/03/10 04:20:42;;;;;;;1999.90;999.90;;;3.40;99.90;;;;;;5027887;28;20483;-67
2022/03/10 04:23:10;;;;;;;1999.90;999.90;;;3.40;99.90;;;;;;5028460;28;20557;-66
2022/03/10 04:25:37;;;;;;;1999.90;999.90;;;3.40;99.90;;;;;;5028140;28;20483;-67
2022/03/10 04:28:04;;;;;;;1999.90;999.90;;;3.40;99.90;;;;;;5027747;28;20493;-69
2022/03/10 04:30:33;;;;;;;1999.90;999.90;;;3.30;99.90;;;;;;5027249;28;20511;-67
2022/03/10 04:33:00;;;;;;;1999.90;999.90;;;3.30;99.90;;;;;;5028053;28;20554;-68
2022/03/10 04:35:27;;;;;;;1999.90;999.90;;;3.20;99.90;;;;;;5027117;28;20447;-70
2022/03/10 04:37:55;;;;;;;1999.90;999.90;;;3.10;99.90;;;;;;5027514;28;20447;-70
2022/03/10 04:40:24;;;;;;;1999.90;999.90;;;3.10;99.90;;;;;;5029553;28;20459;-70
2022/03/10 04:42:51;;;;;;;1999.90;999.90;;;3.00;99.90;;;;;;5031170;28;20497;-68
2022/03/10 04:45:18;;;;;;;1999.90;999.90;;;3.00;99.90;;;;;;5031228;28;20459;-69
2022/03/10 04:47:45;;;;;;;1999.90;999.90;;;3.00;99.90;;;;;;5032154;28;20865;-70
2022/03/10 04:50:14;;;;;;;1999.90;999.90;;;3.00;99.90;;;;;;5031109;28;20451;-69
2022/03/10 04:52:41;;;;;;;1999.90;999.90;;;3.00;99.90;;;;;;5031568;28;20475;-69
2022/03/10 04:55:10;;;;;;;1999.90;999.90;;;3.00;99.90;;;;;;5031993;28;20450;-69
2022/03/10 04:57:39;;;;;;;1999.90;999.90;;;3.00;99.90;;;;;;5035752;28;20510;-70
2022/03/10 05:00:08;;;;;;;1999.90;999.90;;;3.00;99.90;;;;;;5047350;28;20493;-68
2022/03/10 05:02:35;;;;;;;1999.90;999.90;;;3.10;99.90;;;;;;5047819;28;20475;-70
2022/03/10 05:05:02;;;;;;;1999.90;999.90;;;3.20;99.90;;;;;;5039575;28;20537;-70
2022/03/10 05:07:29;;;;;;;1999.90;999.90;;;3.20;99.90;;;;;;5031494;28;20447;-69
2022/03/10 05:09:55;;;;;;;1999.90;999.90;;;3.30;99.90;;;;;;5031255;28;20448;-70
2022/03/10 05:12:22;;;;;;;1999.90;999.90;;;3.40;99.90;;;;;;5030535;28;20533;-69
2022/03/10 05:14:50;;;;;;;1999.90;999.90;;;3.40;99.90;;;;;;5030463;28;20455;-69
2022/03/10 05:17:17;;;;;;;1999.90;999.90;;;3.30;99.90;;;;;;5030996;28;20951;-69
2022/03/10 05:19:44;;;;;;;1999.90;999.90;;;3.20;99.90;;;;;;5030805;28;20538;-69
2022/03/10 05:22:11;;;;;;;1999.90;999.90;;;3.20;99.90;;;;;;5030724;28;20513;-69
2022/03/10 05:24:37;;;;;;;1999.90;999.90;;;3.20;99.90;;;;;;5031263;28;20475;-70
2022/03/10 05:27:04;;;;;;;1999.90;999.90;;;3.10;99.90;;;;;;5029887;28;20451;-68
2022/03/10 05:29:31;;;;;;;1999.90;999.90;;;3.20;99.90;;;;;;5031950;28;20524;-70
2022/03/10 05:31:59;;;;;;;1999.90;999.90;;;3.20;99.90;;;;;;5030619;28;20513;-70
2022/03/10 05:34:25;;;;;;;1999.90;999.90;;;3.20;99.90;;;;;;5031064;28;20517;-70
2022/03/10 05:36:52;;;;;;;1999.90;999.90;;;3.20;99.90;;;;;;5029850;28;20853;-69
2022/03/10 05:39:19;;;;;;;1999.90;999.90;;;3.30;99.90;;;;;;5030594;28;20462;-70
2022/03/10 05:41:45;;;;;;;1999.90;999.90;;;3.40;99.90;;;;;;5029613;28;21058;-70
2022/03/10 05:44:12;;;;;;;1999.90;999.90;;;3.30;99.90;;;;;;5029923;28;20475;-66
2022/03/10 05:46:39;;;;;;;1999.90;999.90;;;3.40;99.90;;;;;;5030335;28;20451;-69
2022/03/10 05:49:07;;;;;;;1999.90;999.90;;;3.40;99.90;;;;;;5030302;28;20455;-69
2022/03/10 05:51:36;;;;;;;1999.90;999.90;;;3.40;99.90;;;;;;5029886;28;20557;-68
2022/03/10 05:54:03;;;;;;;1999.90;999.90;;;3.30;99.90;;;;;;5030490;28;20477;-70
2022/03/10 05:56:29;;;;;;;1999.90;999.90;;;3.30;99.90;;;;;;5030088;28;20443;-70
2022/03/10 05:58:56;;;;;;;1999.90;999.90;;;3.30;99.90;;;;;;5030476;28;20455;-69
2022/03/10 06:01:22;;;;;;;1999.90;999.90;;;3.30;99.90;;;;;;5030048;28;20499;-68
2022/03/10 06:03:49;;;;;;;1999.90;999.90;;;3.30;99.90;;;;;;5030201;28;20525;-70
2022/03/10 06:06:17;;;;;;;1999.90;999.90;;;3.30;99.90;;;;;;5029613;28;20447;-66
2022/03/10 06:08:44;;;;;;;1999.90;999.90;;;3.30;99.90;;;;;;5029676;28;20947;-67
2022/03/10 06:11:11;;;;;;;1999.90;999.90;;;3.30;99.90;;;;;;5029446;28;20485;-70
2022/03/10 06:13:38;;;;;;;1999.90;999.90;;;3.30;99.90;;;;;;5029532;28;20889;-70
2022/03/10 06:16:06;;;;;;;1999.90;999.90;;;3.40;99.90;;;;;;5030229;28;20439;-70
2022/03/10 06:18:32;;;;;;;1999.90;999.90;;;3.40;99.90;;;;;;5029409;28;20501;-69
2022/03/10 06:20:59;;;;;;;1999.90;999.90;;;3.40;99.90;;;;;;5029366;28;20561;-69
2022/03/10 06:23:27;;;;;;;1999.90;999.90;;;3.50;99.90;;;;;;5029163;28;20466;-68
2022/03/10 06:25:54;;;;;;;1999.90;999.90;;;3.50;99.90;;;;;;5029323;28;20454;-70
2022/03/10 06:28:21;;;;;;;1999.90;999.90;;;3.60;99.90;;;;;;5029270;28;20447;-70
2022/03/10 06:30:47;;;;;;;1999.90;999.90;;;3.70;99.90;;;;;;5029862;28;20447;-69
2022/03/10 06:33:14;;;;;;;1999.90;999.90;;;3.80;99.90;;;;;;5028813;28;20467;-70
2022/03/10 06:35:41;;;;;;;1999.90;999.90;;;3.90;99.90;;;;;;5029428;28;20498;-70
2022/03/10 06:38:08;;;;;;;1999.90;999.90;;;4.00;99.90;;;;;;5029473;28;20451;-71
2022/03/10 06:40:36;;;;;;;1999.90;999.90;;;4.00;99.90;;;;;;5027498;28;20505;-70
2022/03/10 06:43:03;;;;;;;1999.90;999.90;;;4.10;99.90;;;;;;5027954;28;20478;-70
2022/03/10 06:48:00;;;;;;;1999.90;999.90;;;4.60;99.90;;;;;;5014600;28;20487;-68
2022/03/10 06:50:28;;;;;;;1999.90;999.90;;;4.80;99.90;;;;;;5015874;28;20499;-68
2022/03/10 06:52:56;;;;;;;1999.90;999.90;;;5.00;99.90;;;;;;5016265;28;21000;-68
2022/03/10 06:55:23;;;;;;;1999.90;999.90;;;5.20;99.90;;;;;;5016434;28;20954;-67
2022/03/10 06:57:51;;;;;;;1999.90;999.90;;;5.30;99.90;;;;;;4996330;28;20449;-67
2022/03/10 07:00:18;;;;;;;1999.90;999.90;;;5.50;99.90;;;;;;4995232;28;20453;-69
2022/03/10 07:02:45;;;;;;;1999.90;999.90;;;5.70;99.90;;;;;;4995584;28;20460;-71
2022/03/10 07:05:12;;;;;;;1999.90;999.90;;;5.90;99.90;;;;;;4996146;28;20485;-68
2022/03/10 07:07:39;;;;;;;1999.90;999.90;;;6.00;99.90;;;;;;4996658;28;20500;-66
2022/03/10 07:10:07;;;;;;;1999.90;999.90;;;6.20;99.90;;;;;;4995710;28;20461;-66
2022/03/10 07:12:36;;;;;;;1999.90;999.90;;;6.30;99.90;;;;;;4996787;28;20461;-68
2022/03/10 07:15:05;;;;;;;1999.90;999.90;;;6.50;99.90;;;;;;4995183;28;20934;-67
2022/03/10 07:17:32;;;;;;;1999.90;999.90;;;6.70;99.90;;;;;;4994490;28;20551;-67
2022/03/10 07:19:58;;;;;;;1999.90;999.90;;;6.70;99.90;;;;;;4995882;28;20968;-69
2022/03/10 07:22:25;;;;;;;1999.90;999.90;;;6.70;99.90;;;;;;4994668;28;20508;-68
2022/03/10 07:24:53;;;;;;;1999.90;999.90;;;6.80;99.90;;;;;;4988929;28;20478;-69
2022/03/10 07:27:20;;;;;;;1999.90;999.90;;;7.00;99.90;;;;;;4993043;28;20473;-68
2022/03/10 07:29:46;;;;;;;1999.90;999.90;;;7.10;99.90;;;;;;4994472;28;20453;-69
2022/03/10 07:32:14;;;;;;;1999.90;999.90;;;7.20;99.90;;;;;;4995069;28;20499;-68
2022/03/10 07:34:41;;;;;;;1999.90;999.90;;;7.40;99.90;;;;;;4994801;28;20445;-68
2022/03/10 07:37:08;;;;;;;1999.90;999.90;;;7.50;99.90;;;;;;4995083;28;20898;-70
2022/03/10 07:39:35;;;;;;;1999.90;999.90;;;7.60;99.90;;;;;;4994334;28;20806;-69
2022/03/10 07:42:02;;;;;;;1999.90;999.90;;;7.80;99.90;;;;;;4993795;28;20449;-66
2022/03/10 07:44:28;;;;;;;1999.90;999.90;;;7.90;99.90;;;;;;4993801;28;20860;-68
2022/03/10 07:46:55;;;;;;;1999.90;999.90;;;7.90;99.90;;;;;;4994630;28;20543;-69
2022/03/10 07:49:23;;;;;;;1999.90;999.90;;;7.90;99.90;;;;;;4994670;28;20504;-68
2022/03/10 07:51:50;;;;;;;1999.90;999.90;;;8.00;99.80;;;;;;4993907;28;20452;-69
2022/03/10 07:54:16;;;;;;;1999.90;999.90;;;8.10;99.80;;;;;;4992620;28;20449;-68
2022/03/10 07:56:43;;;;;;;1999.90;999.90;;;8.20;99.50;;;;;;4994028;28;20472;-70
2022/03/10 07:59:10;;;;;;;1999.90;999.90;;;8.20;99.60;;;;;;4993683;28;20463;-68
2022/03/10 08:01:37;;;;;;;1999.90;999.90;;;8.30;99.60;;;;;;4990776;28;20450;-69
2022/03/10 08:04:04;;;;;;;1999.90;999.90;;;8.40;99.70;;;;;;4992495;28;20584;-66
2022/03/10 08:06:32;;;;;;;1999.90;999.90;;;8.60;99.70;;;;;;4983189;28;20482;-69
2022/03/10 08:08:59;;;;;;;1999.90;999.90;;;8.70;99.50;;;;;;4982956;28;20874;-68
2022/03/10 08:11:26;;;;;;;1999.90;999.90;;;8.90;99.50;;;;;;4992338;28;20444;-67
2022/03/10 08:13:54;;;;;;;1999.90;999.90;;;9.10;98.50;;;;;;4988545;28;20481;-67
2022/03/10 08:16:21;;;;;;;1999.90;999.90;;;9.20;97.00;;;;;;4999587;28;20480;-69
2022/03/10 08:18:49;;;;;;;1999.90;999.90;;;9.30;97.20;;;;;;4998710;28;20506;-68
2022/03/10 08:21:16;;;;;;;1999.90;999.90;;;9.50;97.00;;;;;;4997851;28;20449;-68
2022/03/10 08:23:44;;;;;;;1999.90;999.90;;;9.60;95.70;;;;;;4989199;28;21004;-68
2022/03/10 08:26:11;;;;;;;1999.90;999.90;;;9.80;95.70;;;;;;4985184;28;20993;-68
2022/03/10 08:28:37;;;;;;;1999.90;999.90;;;9.90;95.00;;;;;;4999188;28;20460;-68
2022/03/10 08:31:05;;;;;;;1999.90;999.90;;;9.90;95.20;;;;;;4998325;28;20457;-69
2022/03/10 08:33:32;;;;;;;1999.90;999.90;;;10.10;94.40;;;;;;4997511;28;20552;-68
2022/03/10 08:35:58;;;;;;;1999.90;999.90;;;10.00;93.90;;;;;;4998284;28;20468;-68
2022/03/10 08:38:26;;;;;;;1999.90;999.90;;;10.30;94.40;;;;;;4997332;28;20453;-68
2022/03/10 08:40:54;;;;;;;1999.90;999.90;;;10.30;93.80;;;;;;4997334;28;20484;-69
2022/03/10 08:43:23;;;;;;;1999.90;999.90;;;10.40;93.30;;;;;;4998011;28;20455;-69
2022/03/10 08:45:50;;;;;;;1999.90;999.90;;;10.30;93.60;;;;;;4998833;28;20552;-68
2022/03/10 08:48:17;;;;;;;1999.90;999.90;;;10.10;93.90;;;;;;4998953;28;20507;-69
2022/03/10 08:50:44;;;;;;;1999.90;999.90;;;10.10;93.80;;;;;;4999480;28;20456;-69
2022/03/10 08:53:10;;;;;;;1999.90;999.90;;;10.20;93.80;;;;;;4999425;28;20445;-68
2022/03/10 08:55:37;;;;;;;1999.90;999.90;;;10.30;93.40;;;;;;4998231;28;20445;-68
2022/03/10 08:58:06;;;;;;;1999.90;999.90;;;10.30;92.90;;;;;;4998350;28;20456;-68
2022/03/10 09:00:33;;;;;;;1999.90;999.90;;;10.40;92.90;;;;;;4997001;28;20453;-68
2022/03/10 09:03:00;;;;;;;1999.90;999.90;;;10.60;94.10;;;;;;4997226;28;20536;-67
2022/03/10 09:05:27;;;;;;;1999.90;999.90;;;10.50;96.90;;;;;;4997376;28;21015;-68
2022/03/10 09:07:53;;;;;;;1999.90;999.90;;;10.70;97.40;;;;;;4998060;28;20468;-65
2022/03/10 09:10:20;;;;;;;1999.90;999.90;;;10.40;97.20;;;;;;4997346;28;20444;-68
2022/03/10 09:12:47;;;;;;;1999.90;999.90;;;10.40;97.20;;;;;;4996969;28;20463;-68
2022/03/10 09:15:16;;;;;;;1999.90;999.90;;;10.20;97.10;;;;;;4996732;28;20449;-68
2022/03/10 09:17:43;;;;;;;1999.90;999.90;;;10.20;97.60;;;;;;4997245;28;20469;-66
2022/03/10 09:20:11;;;;;;;1999.90;999.90;;;10.20;97.50;;;;;;4997623;28;20487;-66
2022/03/10 09:22:38;;;;;;;1999.90;999.90;;;10.20;97.40;;;;;;4997085;28;20484;-68
2022/03/10 09:25:08;;;;;;;1999.90;999.90;;;10.30;97.40;;;;;;4996132;28;20488;-68
2022/03/10 09:27:35;;;;;;;1999.90;999.90;;;10.30;97.40;;;;;;4996797;28;20469;-67
2022/03/10 09:30:01;;;;;;;1999.90;999.90;;;10.40;97.40;;;;;;4996685;28;20995;-67
2022/03/10 09:32:35;;;;;;;1999.90;999.90;;;10.50;97.10;;;;;;4996769;28;20455;-66
2022/03/10 09:35:02;;;;;;;1999.90;999.90;;;10.60;96.50;;;;;;4996824;28;20997;-68
2022/03/10 09:37:29;;;;;;;1999.90;999.90;;;10.40;96.20;;;;;;4996289;28;20469;-69
2022/03/10 09:39:55;;;;;;;1999.90;999.90;;;10.40;96.20;;;;;;4997565;28;20449;-66
2022/03/10 09:42:28;;;;;;;1999.90;999.90;;;10.60;96.20;;;;;;4996525;28;20516;-65
2022/03/10 09:44:57;;;;;;;1999.90;999.90;;;10.60;96.00;;;;;;4996272;28;20468;-65
2022/03/10 09:47:24;;;;;;;1999.90;999.90;;;10.60;96.20;;;;;;4996314;28;20477;-68
2022/03/10 09:49:53;;;;;;;1999.90;999.90;;;10.70;96.60;;;;;;4996384;28;20995;-66
2022/03/10 09:52:20;;;;;;;1999.90;999.90;;;10.70;95.90;;;;;;4996815;28;20453;-67
2022/03/10 09:54:47;;;;;;;1999.90;999.90;;;10.90;96.00;;;;;;4996373;28;20445;-65
2022/03/10 09:57:16;;;;;;;1999.90;999.90;;;11.00;95.60;;;;;;4996380;28;20492;-66
2022/03/10 09:59:50;;;;;;;1999.90;999.90;;;11.00;95.80;;;;;;4989189;28;20486;-67
2022/03/10 10:02:17;;;;;;;1999.90;999.90;;;11.10;95.40;;;;;;4976599;28;20541;-69
2022/03/10 10:04:44;;;;;;;1999.90;999.90;;;11.30;95.50;;;;;;4977149;28;20493;-68
2022/03/10 10:07:12;;;;;;;1999.90;999.90;;;11.40;94.80;;;;;;4977173;28;20505;-66
2022/03/10 10:09:44;;;;;;;1999.90;999.90;;;11.40;93.70;;;;;;4982790;28;20830;-70
2022/03/10 10:12:12;;;;;;;1999.90;999.90;;;11.50;93.90;;;;;;4996727;28;20445;-67
2022/03/10 10:14:40;;;;;;;1999.90;999.90;;;11.50;94.20;;;;;;4995806;28;20857;-67
2022/03/10 10:17:07;;;;;;;1999.90;999.90;;;11.40;94.30;;;;;;4986879;28;20482;-67
2022/03/10 10:19:35;;;;;;;1999.90;999.90;;;11.40;94.60;;;;;;4977078;28;20516;-68
2022/03/10 10:22:19;;;;;;;1999.90;999.90;;;11.40;94.50;;;;;;4978572;28;21034;-68
2022/03/10 10:24:49;;;;;;;1999.90;999.90;;;11.40;94.10;;;;;;4995567;28;20524;-66
2022/03/10 10:27:18;;;;;;;1999.90;999.90;;;11.50;94.10;;;;;;4996483;28;20496;-69
2022/03/10 10:29:48;;;;;;;1999.90;999.90;;;11.60;94.00;;;;;;4996301;28;20445;-68
2022/03/10 10:32:26;;;;;;;1999.90;999.90;;;11.50;93.40;;;;;;4995301;28;20449;-68
2022/03/10 10:35:04;;;;;;;1999.90;999.90;;;11.50;93.70;;;;;;4996219;28;20504;-69
2022/03/10 10:37:34;;;;;;;1999.90;999.90;;;11.70;94.60;;;;;;4995237;28;20468;-69
2022/03/10 10:40:00;;;;;;;1999.90;999.90;;;11.80;93.70;;;;;;4996179;28;20456;-66
2022/03/10 10:42:29;;;;;;;1999.90;999.90;;;11.80;93.20;;;;;;4995759;28;20628;-67
2022/03/10 10:44:56;;;;;;;1999.90;999.90;;;11.90;93.50;;;;;;4995379;28;20532;-67
2022/03/10 10:47:23;;;;;;;1999.90;999.90;;;12.00;92.90;;;;;;4995620;28;20842;-68
2022/03/10 10:50:01;;;;;;;1999.90;999.90;;;12.10;92.50;;;;;;4992985;28;20460;-68
2022/03/10 10:52:39;;;;;;;1999.90;999.90;;;12.10;92.00;;;;;;4994938;28;20460;-68
2022/03/10 10:55:07;;;;;;;1999.90;999.90;;;12.20;92.10;;;;;;4995659;28;20986;-68
2022/03/10 10:57:36;;;;;;;1999.90;999.90;;;12.40;91.80;;;;;;4995944;28;20527;-72
2022/03/10 11:00:09;;;;;;;1999.90;999.90;;;12.30;90.70;;;;;;4995781;28;20445;-69
2022/03/10 11:02:40;;;;;;;1999.90;999.90;;;12.30;90.80;;;;;;4996506;28;20433;-68
2022/03/10 11:05:11;;;;;;;1999.90;999.90;;;12.50;91.00;;;;;;4996396;28;20500;-69
2022/03/10 11:07:40;;;;;;;1999.90;999.90;;;13.10;90.10;;;;;;4995865;28;21044;-71
2022/03/10 11:10:09;;;;;;;1999.90;999.90;;;13.70;88.20;;;;;;4994678;28;20467;-66
2022/03/10 11:12:39;;;;;;;1999.90;999.90;;;13.50;86.90;;;;;;4995691;28;20453;-68
2022/03/10 11:15:08;;;;;;;1999.90;999.90;;;13.20;87.80;;;;;;4994845;28;20504;-68
2022/03/10 11:17:35;;;;;;;1999.90;999.90;;;13.10;87.10;;;;;;4995403;28;20907;-68
2022/03/10 11:20:05;;;;;;;1999.90;999.90;;;13.30;87.70;;;;;;4995532;28;20516;-69
2022/03/10 11:22:52;;;;;;;1999.90;999.90;;;13.30;85.90;;;;;;4995068;28;20457;-68
2022/03/10 11:25:36;;;;;;;1999.90;999.90;;;13.60;87.00;;;;;;4995222;28;20472;-68
2022/03/10 11:28:10;;;;;;;1999.90;999.90;;;13.40;85.40;;;;;;4995020;28;20921;-69
2022/03/10 11:30:37;;;;;;;1999.90;999.90;;;13.20;86.70;;;;;;4994851;28;20433;-68
2022/03/10 11:33:06;;;;;;;1999.90;999.90;;;13.00;88.00;;;;;;4995227;28;20503;-69
2022/03/10 11:35:39;;;;;;;1999.90;999.90;;;12.70;85.50;;;;;;4995395;28;20476;-69
2022/03/10 11:38:07;;;;;;;1999.90;999.90;;;12.60;87.60;;;;;;4995463;28;20431;-68
2022/03/10 11:40:43;;;;;;;1999.90;999.90;;;12.70;88.20;;;;;;4995406;28;20460;-68
2022/03/10 11:43:11;;;;;;;1999.90;999.90;;;12.80;88.90;;;;;;4995658;28;20451;-68
2022/03/10 11:45:38;;;;;;;1999.90;999.90;;;12.60;88.20;;;;;;4994588;28;20523;-67
2022/03/10 11:48:35;;;;;;;1999.90;999.90;;;12.70;89.00;;;;;;4994916;28;20507;-70
2022/03/10 11:51:10;;;;;;;1999.90;999.90;;;13.00;90.00;;;;;;4975528;28;20917;-66
2022/03/10 11:53:58;;;;;;;1999.90;999.90;;;12.90;87.70;;;;;;4975609;28;20457;-68
2022/03/10 11:56:57;;;;;;;1999.90;999.90;;;12.90;88.00;;;;;;4975121;28;20466;-69
2022/03/10 11:59:25;;;;;;;1999.90;999.90;;;12.70;87.80;;;;;;4975580;28;20450;-68
2022/03/10 12:01:53;;;;;;;1999.90;999.90;;;12.60;88.00;;;;;;4975074;28;20445;-68
2022/03/10 12:04:21;;;;;;;1999.90;999.90;;;12.70;88.40;;;;;;4985846;28;20453;-70
2022/03/10 12:06:54;;;;;;;1999.90;999.90;;;12.80;86.00;;;;;;4995378;28;20910;-69
2022/03/10 12:09:30;;;;;;;1999.90;999.90;;;12.70;85.40;;;;;;4994710;28;20448;-68
2022/03/10 12:12:15;;;;;;;1999.90;999.90;;;12.60;85.80;;;;;;4994912;28;20445;-68
2022/03/10 12:14:42;;;;;;;1999.90;999.90;;;12.60;85.80;;;;;;4994517;28;20552;-69
2022/03/10 12:17:39;;;;;;;1999.90;999.90;;;12.60;85.60;;;;;;4995223;28;20536;-67
2022/03/10 12:20:13;;;;;;;1999.90;999.90;;;12.50;85.80;;;;;;4993991;28;20453;-67